Scandia, Minnesota
Current Conditions -  °F | °C
As of 11:35 AM on Saturday 22 Nov 2014 (Local Time) from KOEO Reporting Station
Haze Haze  
Wind Chill: 31°   Ceiling: 700
Heat Index: 36°   Visibility: 4mi
Dew Point: 35°   Wind: 6mph
Humidity: 99%   Direction: 190°S
Pressure: 29.75"   Gusts: NA
Location:  45.25°N, 92.81°W
Report Text: KOEO 221735Z AUTO 19005KT 4SM BR OVC007 02/02 A2975 RMK AO2 T00200018
Loading
Personal Weather Stations






























Interactive Weather Map New forecast layout! Learn more

10-Day Weather Forecast

Advertisements
Track Severe Weather on mobile